Meteo Giornale » Osservazioni meteo Svizzera » Lugano

ore: 06:20 - Osservazioni Meteo Lugano
Lat. 46° 0' N Lon. 8° 58' E Alt. 273 metri s.l.m.

sereno Europe/Zurich

4 °C

Sereno

Temp. 24 Ore

4 °C

13 °C

Sud

9.3 Km/h

Dew point -6 °C

Umidità 47 %

Visibilità  10 Km

Il sole sorge alle ore 06:37

Il sole tramonta alle ore 20:11

Data e Ora Cielo e Fenomeni T °C DP °C Um. % Pres. hPa Vis. km Vento km/h
Oggi h: 06:20 sereno Sereno 4 -6 47 1022 10 S 9.3
Oggi h: 05:50 sereno Sereno 6 -8 35 1022 10 N 5.5
Oggi h: 05:20 sereno Sereno 6 -11 28 1022 10 N/NE 14.8
Oggi h: 04:50 sereno Sereno 7 -11 26 1022 10 N 20.3
Oggi h: 04:20 sereno Sereno 7 -10 28 1022 10 N 18.5
Oggi h: 03:50 sereno Sereno 6 -10 30 1023 10 N 20.3
Oggi h: 03:20 sereno Sereno 7 -10 28 1023 10 N/NE 14.8
Oggi h: 02:50 sereno Sereno 7 -11 26 1023 10 N/NE 16.7
Oggi h: 02:20 sereno Sereno 7 -10 28 1023 10 N 18.5
Oggi h: 01:50 sereno Sereno 7 -10 28 1023 10 N/NE 13
Oggi h: 01:20 sereno Sereno 7 -10 28 1023 10 N 20.3
Oggi h: 00:50 sereno Sereno 7 -10 28 1023 10 N 18.5
Oggi h: 00:20 sereno Sereno 8 -10 26 1023 10 N/NE 20.3
Ieri h: 23:50 sereno Sereno 8 -10 26 1023 10 N 20.3
Ieri h: 23:20 sereno Sereno 8 -10 26 1023 10 N 22.2
Ieri h: 22:50 sereno Sereno 8 -9 28 1023 10 N 22.2
Ieri h: 22:20 sereno Sereno 9 -10 24 1022 10 N 27.8
Ieri h: 21:50 sereno Sereno 9 -10 24 1022 10 N 27.8
Ieri h: 21:20 sereno Sereno 9 -10 24 1022 10 N/NE 18.5
Ieri h: 20:50 sereno Sereno 9 -10 24 1022 10 N/NE 24
Ieri h: 20:20 sereno Sereno 10 -10 23 1021 10 N/NE 18.5
Ieri h: 19:50 sereno Sereno 10 -10 23 1021 10 N/NE 20.3
Ieri h: 19:20 sereno Sereno 10 -10 23 1021 10 N/NE 25.9
Ieri h: 18:50 sereno Sereno 11 -9 23 1020 10 N/NE 29.6
Ieri h: 18:20 sereno Sereno 12 -9 22 1020 10 N/NE 27.8
Ieri h: 17:50 sereno Sereno 12 -9 22 1020 10 N/NE 25.9
Ieri h: 17:20 sereno Sereno 12 -9 22 1020 10 N/NE 22.2
Ieri h: 16:50 sereno Sereno 12 -9 22 1020 10 N/NE 25.9
Ieri h: 16:20 sereno Sereno 13 -8 22 1020 10 N/NE 25.9
Ieri h: 15:50 sereno Sereno 13 -8 22 1020 10 N/NE 24
Ieri h: 15:20 sereno Sereno 13 -7 24 1020 10 N/NE 27.8
Ieri h: 14:50 sereno Sereno 13 -9 20 1021 10 N/NE 25.9
Ieri h: 14:20 sereno Sereno 13 -6 26 1020 10 N/NE 25.9
Ieri h: 13:50 sereno Sereno 13 -8 22 1020 10 N 31.5
Ieri h: 13:20 sereno Sereno 12 -7 25 1021 10 N/NE 22.2
Ieri h: 12:50 sereno Sereno 13 -6 26 1021 10 N 31.5
Ieri h: 12:20 sereno Sereno 12 -8 23 1020 10 N 29.6
Ieri h: 11:50 sereno Sereno 12 -8 23 1020 10 N 33.3
Ieri h: 11:20 sereno Sereno 11 -9 23 1020 10 N/NE 25.9
Ieri h: 10:50 sereno Sereno 11 -9 23 1020 10 N/NE 22.2
Ieri h: 10:20 sereno Sereno 10 -9 25 1020 10 N/NE 27.8
Ieri h: 09:50 sereno Sereno 10 -10 23 1020 10 N/NE 25.9
Ieri h: 09:20 sereno Sereno 9 -9 26 1020 10 N/NE 22.2
Ieri h: 08:50 sereno Sereno 8 -11 24 1019 10 N/NE 25.9
Ieri h: 08:20 sereno Sereno 8 -10 26 1019 10 N/NE 24
Ieri h: 07:50 sereno Sereno 7 -10 28 1019 10 N 27.8